sensor_id;sensor_type;location;lat;lon;timestamp;P1;durP1;ratioP1;P2;durP2;ratioP2
9481;SDS011;4779;48.062;11.672;2023-07-22T00:00:28;2.80;;;2.60;;
9481;SDS011;4779;48.062;11.672;2023-07-22T00:02:57;2.83;;;2.63;;
9481;SDS011;4779;48.062;11.672;2023-07-22T00:05:24;2.88;;;2.67;;
9481;SDS011;4779;48.062;11.672;2023-07-22T00:07:51;4.47;;;2.88;;
9481;SDS011;4779;48.062;11.672;2023-07-22T00:10:19;3.58;;;2.47;;
9481;SDS011;4779;48.062;11.672;2023-07-22T00:12:46;2.95;;;2.67;;
9481;SDS011;4779;48.062;11.672;2023-07-22T00:15:13;2.72;;;2.53;;
9481;SDS011;4779;48.062;11.672;2023-07-22T00:17:40;3.00;;;2.67;;
9481;SDS011;4779;48.062;11.672;2023-07-22T00:20:09;3.08;;;2.80;;
9481;SDS011;4779;48.062;11.672;2023-07-22T00:22:37;3.78;;;2.53;;
9481;SDS011;4779;48.062;11.672;2023-07-22T00:25:05;3.85;;;2.70;;
9481;SDS011;4779;48.062;11.672;2023-07-22T00:27:35;4.15;;;2.90;;
9481;SDS011;4779;48.062;11.672;2023-07-22T00:30:03;2.97;;;2.67;;
9481;SDS011;4779;48.062;11.672;2023-07-22T00:32:31;3.70;;;2.72;;
9481;SDS011;4779;48.062;11.672;2023-07-22T00:34:58;3.40;;;2.95;;
9481;SDS011;4779;48.062;11.672;2023-07-22T00:37:26;3.28;;;2.80;;
9481;SDS011;4779;48.062;11.672;2023-07-22T00:39:53;3.30;;;3.00;;
9481;SDS011;4779;48.062;11.672;2023-07-22T00:42:21;3.35;;;2.75;;
9481;SDS011;4779;48.062;11.672;2023-07-22T00:44:48;3.00;;;2.78;;
9481;SDS011;4779;48.062;11.672;2023-07-22T00:47:15;3.00;;;2.70;;
9481;SDS011;4779;48.062;11.672;2023-07-22T00:49:43;4.03;;;2.90;;
9481;SDS011;4779;48.062;11.672;2023-07-22T00:52:13;4.72;;;3.50;;
9481;SDS011;4779;48.062;11.672;2023-07-22T00:54:43;3.35;;;2.80;;
9481;SDS011;4779;48.062;11.672;2023-07-22T00:57:10;3.42;;;3.13;;
9481;SDS011;4779;48.062;11.672;2023-07-22T00:59:38;3.58;;;2.70;;
9481;SDS011;4779;48.062;11.672;2023-07-22T01:02:09;3.22;;;2.92;;
9481;SDS011;4779;48.062;11.672;2023-07-22T01:04:36;4.10;;;3.17;;
9481;SDS011;4779;48.062;11.672;2023-07-22T01:07:04;3.50;;;3.20;;
9481;SDS011;4779;48.062;11.672;2023-07-22T01:09:36;2.92;;;2.72;;
9481;SDS011;4779;48.062;11.672;2023-07-22T01:12:05;3.00;;;2.75;;
9481;SDS011;4779;48.062;11.672;2023-07-22T01:14:33;2.75;;;2.55;;
9481;SDS011;4779;48.062;11.672;2023-07-22T01:17:01;3.15;;;2.85;;
9481;SDS011;4779;48.062;11.672;2023-07-22T01:19:30;3.63;;;2.90;;
9481;SDS011;4779;48.062;11.672;2023-07-22T01:21:57;3.30;;;2.72;;
9481;SDS011;4779;48.062;11.672;2023-07-22T01:24:28;2.83;;;2.63;;
9481;SDS011;4779;48.062;11.672;2023-07-22T01:26:55;3.35;;;2.60;;
9481;SDS011;4779;48.062;11.672;2023-07-22T01:29:26;2.70;;;2.47;;
9481;SDS011;4779;48.062;11.672;2023-07-22T01:31:53;2.90;;;2.60;;
9481;SDS011;4779;48.062;11.672;2023-07-22T01:34:21;2.78;;;2.50;;
9481;SDS011;4779;48.062;11.672;2023-07-22T01:36:50;3.15;;;2.67;;
9481;SDS011;4779;48.062;11.672;2023-07-22T01:39:17;2.95;;;2.75;;
9481;SDS011;4779;48.062;11.672;2023-07-22T01:41:46;3.08;;;2.88;;
9481;SDS011;4779;48.062;11.672;2023-07-22T01:44:13;2.70;;;2.50;;
9481;SDS011;4779;48.062;11.672;2023-07-22T01:46:40;2.92;;;2.60;;
9481;SDS011;4779;48.062;11.672;2023-07-22T01:49:10;3.17;;;2.88;;
9481;SDS011;4779;48.062;11.672;2023-07-22T01:51:38;3.25;;;2.72;;
9481;SDS011;4779;48.062;11.672;2023-07-22T01:54:06;3.25;;;2.95;;
9481;SDS011;4779;48.062;11.672;2023-07-22T01:56:34;3.45;;;3.15;;
9481;SDS011;4779;48.062;11.672;2023-07-22T01:59:03;3.05;;;2.80;;
9481;SDS011;4779;48.062;11.672;2023-07-22T02:01:30;3.38;;;3.08;;
9481;SDS011;4779;48.062;11.672;2023-07-22T02:03:57;3.47;;;3.13;;
9481;SDS011;4779;48.062;11.672;2023-07-22T02:06:25;2.92;;;2.72;;
9481;SDS011;4779;48.062;11.672;2023-07-22T02:08:53;3.35;;;2.83;;
9481;SDS011;4779;48.062;11.672;2023-07-22T02:11:21;3.13;;;2.83;;
9481;SDS011;4779;48.062;11.672;2023-07-22T02:13:48;3.47;;;3.13;;
9481;SDS011;4779;48.062;11.672;2023-07-22T02:16:16;3.25;;;2.95;;
9481;SDS011;4779;48.062;11.672;2023-07-22T02:18:43;3.67;;;2.92;;
9481;SDS011;4779;48.062;11.672;2023-07-22T02:21:10;2.80;;;2.60;;
9481;SDS011;4779;48.062;11.672;2023-07-22T02:23:38;3.20;;;2.50;;
9481;SDS011;4779;48.062;11.672;2023-07-22T02:26:07;2.95;;;2.75;;
9481;SDS011;4779;48.062;11.672;2023-07-22T02:28:34;3.33;;;3.03;;
9481;SDS011;4779;48.062;11.672;2023-07-22T02:31:02;3.47;;;2.90;;
9481;SDS011;4779;48.062;11.672;2023-07-22T02:33:33;3.28;;;2.97;;
9481;SDS011;4779;48.062;11.672;2023-07-22T02:36:00;2.97;;;2.70;;
9481;SDS011;4779;48.062;11.672;2023-07-22T02:38:27;3.30;;;2.65;;
9481;SDS011;4779;48.062;11.672;2023-07-22T02:40:54;5.07;;;2.95;;
9481;SDS011;4779;48.062;11.672;2023-07-22T02:43:27;2.67;;;2.47;;
9481;SDS011;4779;48.062;11.672;2023-07-22T02:45:54;2.60;;;2.40;;
9481;SDS011;4779;48.062;11.672;2023-07-22T02:48:21;3.28;;;2.92;;
9481;SDS011;4779;48.062;11.672;2023-07-22T02:50:50;3.58;;;3.25;;
9481;SDS011;4779;48.062;11.672;2023-07-22T02:53:17;3.30;;;3.00;;
9481;SDS011;4779;48.062;11.672;2023-07-22T02:55:44;4.07;;;3.40;;
9481;SDS011;4779;48.062;11.672;2023-07-22T02:58:13;2.92;;;2.70;;
9481;SDS011;4779;48.062;11.672;2023-07-22T03:00:40;3.63;;;2.90;;
9481;SDS011;4779;48.062;11.672;2023-07-22T03:03:08;3.70;;;2.97;;
9481;SDS011;4779;48.062;11.672;2023-07-22T03:05:35;3.08;;;2.75;;
9481;SDS011;4779;48.062;11.672;2023-07-22T03:08:04;4.65;;;2.97;;
9481;SDS011;4779;48.062;11.672;2023-07-22T03:10:32;3.25;;;2.90;;
9481;SDS011;4779;48.062;11.672;2023-07-22T03:12:59;3.17;;;2.80;;
9481;SDS011;4779;48.062;11.672;2023-07-22T03:15:28;3.63;;;2.80;;
9481;SDS011;4779;48.062;11.672;2023-07-22T03:17:56;3.08;;;2.75;;
9481;SDS011;4779;48.062;11.672;2023-07-22T03:20:24;3.00;;;2.80;;
9481;SDS011;4779;48.062;11.672;2023-07-22T03:22:51;3.97;;;2.85;;
9481;SDS011;4779;48.062;11.672;2023-07-22T03:25:24;2.85;;;2.58;;
9481;SDS011;4779;48.062;11.672;2023-07-22T03:27:51;2.95;;;2.70;;
9481;SDS011;4779;48.062;11.672;2023-07-22T03:30:18;3.00;;;2.80;;
9481;SDS011;4779;48.062;11.672;2023-07-22T03:32:48;3.05;;;2.75;;
9481;SDS011;4779;48.062;11.672;2023-07-22T03:35:16;3.00;;;2.67;;
9481;SDS011;4779;48.062;11.672;2023-07-22T03:37:43;2.78;;;2.58;;
9481;SDS011;4779;48.062;11.672;2023-07-22T03:40:10;3.22;;;3.03;;
9481;SDS011;4779;48.062;11.672;2023-07-22T03:42:44;2.95;;;2.75;;
9481;SDS011;4779;48.062;11.672;2023-07-22T03:45:11;3.30;;;3.00;;
9481;SDS011;4779;48.062;11.672;2023-07-22T03:47:38;3.35;;;3.05;;
9481;SDS011;4779;48.062;11.672;2023-07-22T03:50:06;3.15;;;2.80;;
9481;SDS011;4779;48.062;11.672;2023-07-22T03:52:34;4.07;;;2.90;;
9481;SDS011;4779;48.062;11.672;2023-07-22T03:55:01;3.50;;;2.78;;
9481;SDS011;4779;48.062;11.672;2023-07-22T03:57:28;2.88;;;2.45;;
9481;SDS011;4779;48.062;11.672;2023-07-22T03:59:57;3.05;;;2.72;;
9481;SDS011;4779;48.062;11.672;2023-07-22T04:02:24;3.22;;;2.70;;
9481;SDS011;4779;48.062;11.672;2023-07-22T04:04:52;3.42;;;2.60;;
9481;SDS011;4779;48.062;11.672;2023-07-22T04:07:20;3.47;;;2.95;;
9481;SDS011;4779;48.062;11.672;2023-07-22T04:09:47;3.13;;;2.83;;
9481;SDS011;4779;48.062;11.672;2023-07-22T04:12:14;3.50;;;2.90;;
9481;SDS011;4779;48.062;11.672;2023-07-22T04:14:41;3.15;;;2.83;;
9481;SDS011;4779;48.062;11.672;2023-07-22T04:17:10;3.22;;;2.92;;
9481;SDS011;4779;48.062;11.672;2023-07-22T04:19:37;3.30;;;3.00;;
9481;SDS011;4779;48.062;11.672;2023-07-22T04:22:04;2.65;;;2.45;;
9481;SDS011;4779;48.062;11.672;2023-07-22T04:24:32;3.40;;;2.80;;
9481;SDS011;4779;48.062;11.672;2023-07-22T04:27:00;3.08;;;2.78;;
9481;SDS011;4779;48.062;11.672;2023-07-22T04:29:27;3.38;;;3.08;;
9481;SDS011;4779;48.062;11.672;2023-07-22T04:31:56;3.80;;;2.90;;
9481;SDS011;4779;48.062;11.672;2023-07-22T04:34:27;3.67;;;3.10;;
9481;SDS011;4779;48.062;11.672;2023-07-22T04:36:55;3.60;;;3.30;;
9481;SDS011;4779;48.062;11.672;2023-07-22T04:39:22;3.58;;;3.28;;
9481;SDS011;4779;48.062;11.672;2023-07-22T04:41:49;2.83;;;2.63;;
9481;SDS011;4779;48.062;11.672;2023-07-22T04:44:16;3.05;;;2.75;;
9481;SDS011;4779;48.062;11.672;2023-07-22T04:46:45;3.05;;;2.80;;
9481;SDS011;4779;48.062;11.672;2023-07-22T04:49:12;3.20;;;2.90;;
9481;SDS011;4779;48.062;11.672;2023-07-22T04:51:44;3.08;;;2.88;;
9481;SDS011;4779;48.062;11.672;2023-07-22T04:54:11;3.35;;;3.05;;
9481;SDS011;4779;48.062;11.672;2023-07-22T04:56:39;3.45;;;2.75;;
9481;SDS011;4779;48.062;11.672;2023-07-22T04:59:06;4.00;;;3.08;;
9481;SDS011;4779;48.062;11.672;2023-07-22T05:01:33;3.83;;;3.13;;
9481;SDS011;4779;48.062;11.672;2023-07-22T05:04:00;3.15;;;2.72;;
9481;SDS011;4779;48.062;11.672;2023-07-22T05:06:28;3.20;;;2.90;;
9481;SDS011;4779;48.062;11.672;2023-07-22T05:08:56;3.47;;;3.17;;
9481;SDS011;4779;48.062;11.672;2023-07-22T05:11:23;4.32;;;3.40;;
9481;SDS011;4779;48.062;11.672;2023-07-22T05:13:50;4.43;;;3.25;;
9481;SDS011;4779;48.062;11.672;2023-07-22T05:16:17;3.50;;;3.20;;
9481;SDS011;4779;48.062;11.672;2023-07-22T05:18:46;5.25;;;3.35;;
9481;SDS011;4779;48.062;11.672;2023-07-22T05:21:13;4.95;;;3.60;;
9481;SDS011;4779;48.062;11.672;2023-07-22T05:23:40;4.15;;;3.10;;
9481;SDS011;4779;48.062;11.672;2023-07-22T05:26:09;3.35;;;3.05;;
9481;SDS011;4779;48.062;11.672;2023-07-22T05:28:36;3.17;;;2.88;;
9481;SDS011;4779;48.062;11.672;2023-07-22T05:31:04;3.83;;;3.42;;
9481;SDS011;4779;48.062;11.672;2023-07-22T05:33:33;4.25;;;3.30;;
9481;SDS011;4779;48.062;11.672;2023-07-22T05:36:01;3.33;;;2.97;;
9481;SDS011;4779;48.062;11.672;2023-07-22T05:38:28;3.92;;;3.15;;
9481;SDS011;4779;48.062;11.672;2023-07-22T05:40:56;5.68;;;3.55;;
9481;SDS011;4779;48.062;11.672;2023-07-22T05:43:24;4.90;;;4.10;;
9481;SDS011;4779;48.062;11.672;2023-07-22T05:45:52;4.35;;;3.60;;
9481;SDS011;4779;48.062;11.672;2023-07-22T05:48:20;4.53;;;3.47;;
9481;SDS011;4779;48.062;11.672;2023-07-22T05:50:51;5.10;;;3.65;;
9481;SDS011;4779;48.062;11.672;2023-07-22T05:53:29;3.58;;;3.28;;
9481;SDS011;4779;48.062;11.672;2023-07-22T05:55:56;4.95;;;3.80;;
9481;SDS011;4779;48.062;11.672;2023-07-22T05:58:24;3.88;;;3.58;;
9481;SDS011;4779;48.062;11.672;2023-07-22T06:00:52;5.15;;;3.45;;
9481;SDS011;4779;48.062;11.672;2023-07-22T06:03:20;4.63;;;3.20;;
9481;SDS011;4779;48.062;11.672;2023-07-22T06:05:47;3.63;;;3.28;;
9481;SDS011;4779;48.062;11.672;2023-07-22T06:08:14;3.95;;;3.00;;
9481;SDS011;4779;48.062;11.672;2023-07-22T06:10:41;3.63;;;3.33;;
9481;SDS011;4779;48.062;11.672;2023-07-22T06:13:09;3.50;;;3.20;;
9481;SDS011;4779;48.062;11.672;2023-07-22T06:15:37;3.30;;;2.80;;
9481;SDS011;4779;48.062;11.672;2023-07-22T06:20:32;3.15;;;2.70;;
9481;SDS011;4779;48.062;11.672;2023-07-22T06:22:59;3.38;;;3.03;;
9481;SDS011;4779;48.062;11.672;2023-07-22T06:25:26;2.83;;;2.63;;
9481;SDS011;4779;48.062;11.672;2023-07-22T06:27:53;3.35;;;2.70;;
9481;SDS011;4779;48.062;11.672;2023-07-22T06:30:20;3.42;;;2.63;;
9481;SDS011;4779;48.062;11.672;2023-07-22T06:32:49;3.13;;;2.80;;
9481;SDS011;4779;48.062;11.672;2023-07-22T06:35:16;5.35;;;2.60;;
9481;SDS011;4779;48.062;11.672;2023-07-22T06:37:43;3.65;;;2.67;;
9481;SDS011;4779;48.062;11.672;2023-07-22T06:40:10;4.05;;;2.55;;
9481;SDS011;4779;48.062;11.672;2023-07-22T06:42:37;2.10;;;2.00;;
9481;SDS011;4779;48.062;11.672;2023-07-22T06:45:05;2.75;;;2.00;;
9481;SDS011;4779;48.062;11.672;2023-07-22T06:47:33;2.88;;;2.25;;
9481;SDS011;4779;48.062;11.672;2023-07-22T06:50:03;2.90;;;2.25;;
9481;SDS011;4779;48.062;11.672;2023-07-22T06:52:30;2.30;;;2.10;;
9481;SDS011;4779;48.062;11.672;2023-07-22T06:54:57;2.20;;;2.08;;
9481;SDS011;4779;48.062;11.672;2023-07-22T06:57:24;2.10;;;1.90;;
9481;SDS011;4779;48.062;11.672;2023-07-22T06:59:53;2.83;;;1.88;;
9481;SDS011;4779;48.062;11.672;2023-07-22T07:02:20;2.90;;;2.10;;
9481;SDS011;4779;48.062;11.672;2023-07-22T07:04:47;1.85;;;1.73;;
9481;SDS011;4779;48.062;11.672;2023-07-22T07:07:16;3.45;;;2.28;;
9481;SDS011;4779;48.062;11.672;2023-07-22T07:09:43;3.35;;;2.35;;
9481;SDS011;4779;48.062;11.672;2023-07-22T07:12:11;3.28;;;1.90;;
9481;SDS011;4779;48.062;11.672;2023-07-22T07:14:38;2.15;;;1.83;;
9481;SDS011;4779;48.062;11.672;2023-07-22T07:17:05;2.22;;;1.95;;
9481;SDS011;4779;48.062;11.672;2023-07-22T07:19:32;4.40;;;2.10;;
9481;SDS011;4779;48.062;11.672;2023-07-22T07:21:59;3.65;;;2.08;;
9481;SDS011;4779;48.062;11.672;2023-07-22T07:24:28;2.80;;;2.10;;
9481;SDS011;4779;48.062;11.672;2023-07-22T07:26:55;3.10;;;2.28;;
9481;SDS011;4779;48.062;11.672;2023-07-22T07:29:22;3.42;;;1.90;;
9481;SDS011;4779;48.062;11.672;2023-07-22T07:31:49;2.50;;;2.10;;
9481;SDS011;4779;48.062;11.672;2023-07-22T07:34:16;3.25;;;1.85;;
9481;SDS011;4779;48.062;11.672;2023-07-22T07:36:43;1.95;;;1.85;;
9481;SDS011;4779;48.062;11.672;2023-07-22T07:39:10;2.20;;;2.00;;
9481;SDS011;4779;48.062;11.672;2023-07-22T07:41:38;1.90;;;1.80;;
9481;SDS011;4779;48.062;11.672;2023-07-22T07:44:08;3.55;;;2.00;;
9481;SDS011;4779;48.062;11.672;2023-07-22T07:46:35;2.17;;;1.83;;
9481;SDS011;4779;48.062;11.672;2023-07-22T07:49:02;2.88;;;2.03;;
9481;SDS011;4779;48.062;11.672;2023-07-22T07:51:30;1.90;;;1.80;;
9481;SDS011;4779;48.062;11.672;2023-07-22T07:53:59;2.45;;;1.70;;
9481;SDS011;4779;48.062;11.672;2023-07-22T07:56:26;1.88;;;1.67;;
9481;SDS011;4779;48.062;11.672;2023-07-22T07:58:55;3.15;;;1.92;;
9481;SDS011;4779;48.062;11.672;2023-07-22T08:01:22;2.72;;;1.75;;
9481;SDS011;4779;48.062;11.672;2023-07-22T08:03:49;2.33;;;1.83;;
9481;SDS011;4779;48.062;11.672;2023-07-22T08:06:16;2.10;;;1.90;;
9481;SDS011;4779;48.062;11.672;2023-07-22T08:08:44;2.00;;;1.60;;
9481;SDS011;4779;48.062;11.672;2023-07-22T08:11:12;2.88;;;2.20;;
9481;SDS011;4779;48.062;11.672;2023-07-22T08:13:41;4.43;;;2.70;;
9481;SDS011;4779;48.062;11.672;2023-07-22T08:16:10;4.80;;;2.38;;
9481;SDS011;4779;48.062;11.672;2023-07-22T08:18:39;2.03;;;1.92;;
9481;SDS011;4779;48.062;11.672;2023-07-22T08:21:06;2.53;;;1.42;;
9481;SDS011;4779;48.062;11.672;2023-07-22T08:23:34;2.63;;;2.28;;
9481;SDS011;4779;48.062;11.672;2023-07-22T08:26:01;3.42;;;2.05;;
9481;SDS011;4779;48.062;11.672;2023-07-22T08:28:30;4.38;;;3.30;;
9481;SDS011;4779;48.062;11.672;2023-07-22T08:30:57;2.38;;;2.05;;
9481;SDS011;4779;48.062;11.672;2023-07-22T08:33:27;1.98;;;1.58;;
9481;SDS011;4779;48.062;11.672;2023-07-22T08:35:54;2.05;;;1.42;;
9481;SDS011;4779;48.062;11.672;2023-07-22T08:38:21;1.63;;;1.52;;
9481;SDS011;4779;48.062;11.672;2023-07-22T08:40:48;7.80;;;6.50;;
9481;SDS011;4779;48.062;11.672;2023-07-22T08:43:17;6.43;;;5.32;;
9481;SDS011;4779;48.062;11.672;2023-07-22T08:45:48;3.47;;;2.72;;
9481;SDS011;4779;48.062;11.672;2023-07-22T08:48:17;2.97;;;2.05;;
9481;SDS011;4779;48.062;11.672;2023-07-22T08:50:48;2.30;;;2.10;;
9481;SDS011;4779;48.062;11.672;2023-07-22T08:53:18;9.40;;;8.40;;
9481;SDS011;4779;48.062;11.672;2023-07-22T08:55:45;2.38;;;2.17;;
9481;SDS011;4779;48.062;11.672;2023-07-22T08:58:14;2.50;;;2.30;;
9481;SDS011;4779;48.062;11.672;2023-07-22T09:00:41;4.03;;;3.00;;
9481;SDS011;4779;48.062;11.672;2023-07-22T09:03:09;1.70;;;1.60;;
9481;SDS011;4779;48.062;11.672;2023-07-22T09:05:37;1.52;;;1.42;;
9481;SDS011;4779;48.062;11.672;2023-07-22T09:08:06;1.98;;;1.40;;
9481;SDS011;4779;48.062;11.672;2023-07-22T09:10:34;2.60;;;1.80;;
9481;SDS011;4779;48.062;11.672;2023-07-22T09:13:02;4.10;;;1.80;;
9481;SDS011;4779;48.062;11.672;2023-07-22T09:15:29;1.58;;;1.42;;
9481;SDS011;4779;48.062;11.672;2023-07-22T09:18:01;2.00;;;1.60;;
9481;SDS011;4779;48.062;11.672;2023-07-22T09:20:28;1.77;;;1.67;;
9481;SDS011;4779;48.062;11.672;2023-07-22T09:22:55;2.15;;;1.65;;
9481;SDS011;4779;48.062;11.672;2023-07-22T09:25:24;1.45;;;1.30;;
9481;SDS011;4779;48.062;11.672;2023-07-22T09:27:54;1.40;;;1.30;;
9481;SDS011;4779;48.062;11.672;2023-07-22T09:30:22;2.45;;;1.23;;
9481;SDS011;4779;48.062;11.672;2023-07-22T09:32:51;1.83;;;1.35;;
9481;SDS011;4779;48.062;11.672;2023-07-22T09:35:19;1.67;;;1.58;;
9481;SDS011;4779;48.062;11.672;2023-07-22T09:37:46;1.52;;;1.35;;
9481;SDS011;4779;48.062;11.672;2023-07-22T09:40:14;1.98;;;1.42;;
9481;SDS011;4779;48.062;11.672;2023-07-22T09:42:44;1.40;;;1.30;;
9481;SDS011;4779;48.062;11.672;2023-07-22T09:45:12;1.27;;;1.17;;
9481;SDS011;4779;48.062;11.672;2023-07-22T09:47:40;1.48;;;1.38;;
9481;SDS011;4779;48.062;11.672;2023-07-22T09:50:10;1.67;;;1.58;;
9481;SDS011;4779;48.062;11.672;2023-07-22T09:52:41;2.08;;;1.45;;
9481;SDS011;4779;48.062;11.672;2023-07-22T09:55:10;1.83;;;1.50;;
9481;SDS011;4779;48.062;11.672;2023-07-22T09:57:38;1.90;;;1.50;;
9481;SDS011;4779;48.062;11.672;2023-07-22T10:00:10;1.98;;;1.23;;
9481;SDS011;4779;48.062;11.672;2023-07-22T10:02:40;1.50;;;1.40;;
9481;SDS011;4779;48.062;11.672;2023-07-22T10:05:10;1.40;;;1.30;;
9481;SDS011;4779;48.062;11.672;2023-07-22T10:07:41;1.48;;;1.33;;
9481;SDS011;4779;48.062;11.672;2023-07-22T10:10:11;1.67;;;1.50;;
9481;SDS011;4779;48.062;11.672;2023-07-22T10:12:39;1.20;;;1.10;;
9481;SDS011;4779;48.062;11.672;2023-07-22T10:15:09;1.33;;;1.23;;
9481;SDS011;4779;48.062;11.672;2023-07-22T10:17:37;2.75;;;1.33;;
9481;SDS011;4779;48.062;11.672;2023-07-22T10:20:05;2.15;;;1.20;;
9481;SDS011;4779;48.062;11.672;2023-07-22T10:22:35;1.48;;;1.38;;
9481;SDS011;4779;48.062;11.672;2023-07-22T10:25:06;1.88;;;1.65;;
9481;SDS011;4779;48.062;11.672;2023-07-22T10:27:34;2.20;;;1.58;;
9481;SDS011;4779;48.062;11.672;2023-07-22T10:30:05;1.50;;;1.40;;
9481;SDS011;4779;48.062;11.672;2023-07-22T10:32:35;1.92;;;1.20;;
9481;SDS011;4779;48.062;11.672;2023-07-22T10:35:03;2.30;;;1.58;;
9481;SDS011;4779;48.062;11.672;2023-07-22T10:37:35;1.58;;;1.10;;
9481;SDS011;4779;48.062;11.672;2023-07-22T10:40:16;1.50;;;1.40;;
9481;SDS011;4779;48.062;11.672;2023-07-22T10:42:51;1.30;;;1.20;;
9481;SDS011;4779;48.062;11.672;2023-07-22T10:45:26;1.45;;;1.25;;
9481;SDS011;4779;48.062;11.672;2023-07-22T10:48:02;1.45;;;1.35;;
9481;SDS011;4779;48.062;11.672;2023-07-22T10:50:38;3.08;;;1.50;;
9481;SDS011;4779;48.062;11.672;2023-07-22T10:53:08;2.22;;;1.55;;
9481;SDS011;4779;48.062;11.672;2023-07-22T10:58:31;2.00;;;1.33;;
9481;SDS011;4779;48.062;11.672;2023-07-22T11:04:05;1.88;;;1.45;;
9481;SDS011;4779;48.062;11.672;2023-07-22T11:06:38;1.50;;;1.40;;
9481;SDS011;4779;48.062;11.672;2023-07-22T11:09:33;1.25;;;1.17;;
9481;SDS011;4779;48.062;11.672;2023-07-22T11:12:05;3.85;;;1.33;;
9481;SDS011;4779;48.062;11.672;2023-07-22T11:14:34;1.50;;;1.40;;
9481;SDS011;4779;48.062;11.672;2023-07-22T11:17:03;1.58;;;1.48;;
9481;SDS011;4779;48.062;11.672;2023-07-22T11:19:34;1.98;;;1.33;;
9481;SDS011;4779;48.062;11.672;2023-07-22T11:22:01;1.55;;;1.45;;
9481;SDS011;4779;48.062;11.672;2023-07-22T11:24:29;1.27;;;1.17;;
9481;SDS011;4779;48.062;11.672;2023-07-22T11:26:58;1.92;;;1.73;;
9481;SDS011;4779;48.062;11.672;2023-07-22T11:29:25;1.65;;;1.50;;
9481;SDS011;4779;48.062;11.672;2023-07-22T11:31:52;1.88;;;1.60;;
9481;SDS011;4779;48.062;11.672;2023-07-22T11:34:20;3.10;;;1.73;;
9481;SDS011;4779;48.062;11.672;2023-07-22T11:36:50;1.52;;;1.42;;
9481;SDS011;4779;48.062;11.672;2023-07-22T11:39:19;2.65;;;1.50;;
9481;SDS011;4779;48.062;11.672;2023-07-22T11:41:47;2.03;;;1.50;;
9481;SDS011;4779;48.062;11.672;2023-07-22T11:44:18;1.80;;;1.63;;
9481;SDS011;4779;48.062;11.672;2023-07-22T11:46:46;1.75;;;1.30;;
9481;SDS011;4779;48.062;11.672;2023-07-22T11:49:21;1.60;;;1.50;;
9481;SDS011;4779;48.062;11.672;2023-07-22T11:51:58;1.52;;;1.42;;
9481;SDS011;4779;48.062;11.672;2023-07-22T11:54:26;1.65;;;1.55;;
9481;SDS011;4779;48.062;11.672;2023-07-22T11:56:54;2.33;;;1.35;;
9481;SDS011;4779;48.062;11.672;2023-07-22T11:59:34;1.85;;;1.70;;
9481;SDS011;4779;48.062;11.672;2023-07-22T12:02:03;1.92;;;1.60;;
9481;SDS011;4779;48.062;11.672;2023-07-22T12:04:31;2.40;;;1.80;;
9481;SDS011;4779;48.062;11.672;2023-07-22T12:07:00;2.95;;;1.60;;
9481;SDS011;4779;48.062;11.672;2023-07-22T12:09:29;2.70;;;1.80;;
9481;SDS011;4779;48.062;11.672;2023-07-22T12:11:56;2.35;;;1.70;;
9481;SDS011;4779;48.062;11.672;2023-07-22T12:14:24;2.78;;;1.88;;
9481;SDS011;4779;48.062;11.672;2023-07-22T12:16:59;2.85;;;1.80;;
9481;SDS011;4779;48.062;11.672;2023-07-22T12:19:27;2.95;;;1.63;;
9481;SDS011;4779;48.062;11.672;2023-07-22T12:21:54;1.88;;;1.77;;
9481;SDS011;4779;48.062;11.672;2023-07-22T12:24:22;1.63;;;1.52;;
9481;SDS011;4779;48.062;11.672;2023-07-22T12:26:50;2.20;;;1.77;;
9481;SDS011;4779;48.062;11.672;2023-07-22T12:29:16;2.53;;;1.73;;
9481;SDS011;4779;48.062;11.672;2023-07-22T12:31:45;1.58;;;1.48;;
9481;SDS011;4779;48.062;11.672;2023-07-22T12:34:12;2.97;;;2.00;;
9481;SDS011;4779;48.062;11.672;2023-07-22T12:36:39;2.25;;;1.60;;
9481;SDS011;4779;48.062;11.672;2023-07-22T12:39:09;3.72;;;2.00;;
9481;SDS011;4779;48.062;11.672;2023-07-22T12:41:38;1.80;;;1.70;;
9481;SDS011;4779;48.062;11.672;2023-07-22T12:44:05;3.65;;;1.63;;
9481;SDS011;4779;48.062;11.672;2023-07-22T12:46:32;2.90;;;1.80;;
9481;SDS011;4779;48.062;11.672;2023-07-22T12:49:08;2.92;;;1.65;;
9481;SDS011;4779;48.062;11.672;2023-07-22T12:51:35;3.40;;;1.90;;
9481;SDS011;4779;48.062;11.672;2023-07-22T12:54:02;2.00;;;1.90;;
9481;SDS011;4779;48.062;11.672;2023-07-22T12:56:29;2.33;;;2.03;;
9481;SDS011;4779;48.062;11.672;2023-07-22T12:58:58;3.95;;;1.85;;
9481;SDS011;4779;48.062;11.672;2023-07-22T13:01:25;2.03;;;1.75;;
9481;SDS011;4779;48.062;11.672;2023-07-22T13:03:58;1.63;;;1.52;;
9481;SDS011;4779;48.062;11.672;2023-07-22T13:06:25;1.85;;;1.75;;
9481;SDS011;4779;48.062;11.672;2023-07-22T13:08:52;3.92;;;2.00;;
9481;SDS011;4779;48.062;11.672;2023-07-22T13:11:19;2.38;;;1.88;;
9481;SDS011;4779;48.062;11.672;2023-07-22T13:13:46;1.80;;;1.70;;
9481;SDS011;4779;48.062;11.672;2023-07-22T13:16:14;1.98;;;1.85;;
9481;SDS011;4779;48.062;11.672;2023-07-22T13:18:41;2.03;;;1.70;;
9481;SDS011;4779;48.062;11.672;2023-07-22T13:21:08;2.95;;;1.70;;
9481;SDS011;4779;48.062;11.672;2023-07-22T13:23:35;2.17;;;1.80;;
9481;SDS011;4779;48.062;11.672;2023-07-22T13:26:02;3.00;;;1.83;;
9481;SDS011;4779;48.062;11.672;2023-07-22T13:28:32;2.03;;;1.67;;
9481;SDS011;4779;48.062;11.672;2023-07-22T13:30:59;3.03;;;1.73;;
9481;SDS011;4779;48.062;11.672;2023-07-22T13:33:28;3.00;;;1.80;;
9481;SDS011;4779;48.062;11.672;2023-07-22T13:35:56;2.53;;;1.85;;
9481;SDS011;4779;48.062;11.672;2023-07-22T13:38:23;2.15;;;2.05;;
9481;SDS011;4779;48.062;11.672;2023-07-22T13:40:51;2.90;;;2.00;;
9481;SDS011;4779;48.062;11.672;2023-07-22T13:43:18;2.28;;;2.08;;
9481;SDS011;4779;48.062;11.672;2023-07-22T13:45:45;2.88;;;2.05;;
9481;SDS011;4779;48.062;11.672;2023-07-22T13:48:12;2.38;;;2.15;;
9481;SDS011;4779;48.062;11.672;2023-07-22T13:50:40;2.13;;;1.95;;
9481;SDS011;4779;48.062;11.672;2023-07-22T13:53:07;2.78;;;2.10;;
9481;SDS011;4779;48.062;11.672;2023-07-22T13:55:34;2.40;;;2.20;;
9481;SDS011;4779;48.062;11.672;2023-07-22T13:58:01;3.65;;;2.33;;
9481;SDS011;4779;48.062;11.672;2023-07-22T14:00:28;2.97;;;2.13;;
9481;SDS011;4779;48.062;11.672;2023-07-22T14:02:55;2.20;;;1.98;;
9481;SDS011;4779;48.062;11.672;2023-07-22T14:05:24;3.35;;;2.20;;
9481;SDS011;4779;48.062;11.672;2023-07-22T14:07:53;2.10;;;1.90;;
9481;SDS011;4779;48.062;11.672;2023-07-22T14:10:20;1.95;;;1.75;;
9481;SDS011;4779;48.062;11.672;2023-07-22T14:12:47;2.22;;;2.10;;
9481;SDS011;4779;48.062;11.672;2023-07-22T14:15:17;1.85;;;1.75;;
9481;SDS011;4779;48.062;11.672;2023-07-22T14:17:49;3.67;;;1.90;;
9481;SDS011;4779;48.062;11.672;2023-07-22T14:20:16;3.15;;;1.92;;
9481;SDS011;4779;48.062;11.672;2023-07-22T14:22:44;2.25;;;1.70;;
9481;SDS011;4779;48.062;11.672;2023-07-22T14:25:13;2.10;;;1.70;;
9481;SDS011;4779;48.062;11.672;2023-07-22T14:27:40;1.92;;;1.80;;
9481;SDS011;4779;48.062;11.672;2023-07-22T14:30:08;2.80;;;1.90;;
9481;SDS011;4779;48.062;11.672;2023-07-22T14:32:41;2.38;;;2.10;;
9481;SDS011;4779;48.062;11.672;2023-07-22T14:35:08;2.35;;;2.15;;
9481;SDS011;4779;48.062;11.672;2023-07-22T14:37:35;4.63;;;2.00;;
9481;SDS011;4779;48.062;11.672;2023-07-22T14:40:06;2.03;;;1.90;;
9481;SDS011;4779;48.062;11.672;2023-07-22T14:42:39;2.08;;;1.70;;
9481;SDS011;4779;48.062;11.672;2023-07-22T14:45:09;2.45;;;1.85;;
9481;SDS011;4779;48.062;11.672;2023-07-22T14:47:39;2.45;;;1.85;;
9481;SDS011;4779;48.062;11.672;2023-07-22T14:50:06;2.17;;;1.95;;
9481;SDS011;4779;48.062;11.672;2023-07-22T14:52:34;2.63;;;2.08;;
9481;SDS011;4779;48.062;11.672;2023-07-22T14:55:01;2.45;;;1.90;;
9481;SDS011;4779;48.062;11.672;2023-07-22T14:57:28;2.13;;;1.92;;
9481;SDS011;4779;48.062;11.672;2023-07-22T14:59:57;3.00;;;1.90;;
9481;SDS011;4779;48.062;11.672;2023-07-22T15:02:27;4.13;;;1.70;;
9481;SDS011;4779;48.062;11.672;2023-07-22T15:04:57;1.83;;;1.70;;
9481;SDS011;4779;48.062;11.672;2023-07-22T15:07:24;3.33;;;1.92;;
9481;SDS011;4779;48.062;11.672;2023-07-22T15:09:53;2.10;;;1.95;;
9481;SDS011;4779;48.062;11.672;2023-07-22T15:12:20;2.13;;;1.92;;
9481;SDS011;4779;48.062;11.672;2023-07-22T15:14:47;2.72;;;2.33;;